createdAt,value
2018-03-31T00:01:48.137Z,95.80
2018-03-31T00:04:15.206Z,95.26
2018-03-31T00:06:42.224Z,94.40
2018-03-31T00:09:09.280Z,94.04
2018-03-31T00:11:36.295Z,93.52
2018-03-31T00:14:03.360Z,93.26
2018-03-31T00:16:30.370Z,93.14
2018-03-31T00:18:57.429Z,92.87
2018-03-31T00:21:24.438Z,92.70
2018-03-31T00:23:51.483Z,92.77
2018-03-31T00:26:18.491Z,92.87
2018-03-31T00:28:45.550Z,93.00
2018-03-31T00:31:12.770Z,93.09
2018-03-31T00:33:39.732Z,92.95
2018-03-31T00:36:06.788Z,92.78
2018-03-31T00:38:33.802Z,92.82
2018-03-31T00:41:00.888Z,92.98
2018-03-31T00:43:27.895Z,92.93
2018-03-31T00:45:55.003Z,92.59
2018-03-31T00:48:22.025Z,92.37
2018-03-31T00:50:49.085Z,92.23
2018-03-31T00:53:16.096Z,92.00
2018-03-31T00:55:43.201Z,91.98
2018-03-31T00:58:10.225Z,91.92
2018-03-31T01:00:37.286Z,92.38
2018-03-31T01:03:04.298Z,93.38
2018-03-31T01:05:31.414Z,94.62
2018-03-31T01:07:58.427Z,95.55
2018-03-31T01:10:25.490Z,96.27
2018-03-31T01:12:52.499Z,96.68
2018-03-31T01:15:19.562Z,96.74
2018-03-31T01:17:46.592Z,96.43
2018-03-31T01:20:13.659Z,96.09
2018-03-31T01:22:40.649Z,95.52
2018-03-31T01:25:07.681Z,94.90
2018-03-31T01:27:34.872Z,94.38
2018-03-31T01:30:01.959Z,93.80
2018-03-31T01:32:29.020Z,93.36
2018-03-31T01:34:56.055Z,92.89
2018-03-31T01:37:23.120Z,92.49
2018-03-31T01:39:50.134Z,92.34
2018-03-31T01:42:17.178Z,92.29
2018-03-31T01:44:44.351Z,92.23
2018-03-31T01:47:11.396Z,91.95
2018-03-31T01:49:38.401Z,92.05
2018-03-31T01:52:05.454Z,92.23
2018-03-31T01:54:32.462Z,92.46
2018-03-31T01:56:59.503Z,92.44
2018-03-31T01:59:26.510Z,92.22
2018-03-31T02:01:53.568Z,92.28
2018-03-31T02:04:20.577Z,92.22
2018-03-31T02:06:47.640Z,92.24
2018-03-31T02:09:14.685Z,92.03
2018-03-31T02:11:41.738Z,92.06
2018-03-31T02:14:08.759Z,92.12
2018-03-31T02:16:35.798Z,91.96
2018-03-31T02:19:02.811Z,91.84
2018-03-31T02:21:29.856Z,92.00
2018-03-31T02:23:56.878Z,92.19
2018-03-31T02:26:23.874Z,92.47
2018-03-31T02:28:50.935Z,92.55
2018-03-31T02:31:17.948Z,92.21
2018-03-31T02:33:44.999Z,91.93
2018-03-31T02:36:12.024Z,91.55
2018-03-31T02:38:39.072Z,91.29
2018-03-31T02:41:06.097Z,91.47
2018-03-31T02:43:33.411Z,91.23
2018-03-31T02:46:00.424Z,91.08
2018-03-31T02:48:27.465Z,90.76
2018-03-31T02:50:54.466Z,90.48
2018-03-31T02:53:21.535Z,91.57
2018-03-31T02:55:48.540Z,93.07
2018-03-31T02:58:15.584Z,93.99
2018-03-31T03:00:42.600Z,94.25
2018-03-31T03:03:09.695Z,94.39
2018-03-31T03:05:36.678Z,95.19
2018-03-31T03:08:03.728Z,96.10
2018-03-31T03:10:30.741Z,96.37
2018-03-31T03:12:57.778Z,96.95
2018-03-31T03:15:24.811Z,97.62
2018-03-31T03:17:51.868Z,98.16
2018-03-31T03:20:18.918Z,98.52
2018-03-31T03:22:45.946Z,99.07
2018-03-31T03:25:12.995Z,99.76
2018-03-31T03:27:40.006Z,100.00
2018-03-31T03:30:07.077Z,100.00
2018-03-31T03:32:34.086Z,100.00
2018-03-31T03:35:01.235Z,100.00
2018-03-31T03:37:28.242Z,100.00
2018-03-31T03:39:55.297Z,100.00
2018-03-31T03:42:22.302Z,100.00
2018-03-31T03:44:49.402Z,100.00
2018-03-31T03:47:16.418Z,100.00
2018-03-31T03:49:43.467Z,100.00
2018-03-31T03:52:10.473Z,100.00
2018-03-31T03:54:37.531Z,100.00
2018-03-31T03:57:04.535Z,99.43
2018-03-31T03:59:31.602Z,98.69
2018-03-31T04:01:58.601Z,97.71
2018-03-31T04:04:25.638Z,97.13
2018-03-31T04:06:52.651Z,96.23
2018-03-31T04:09:19.702Z,95.71
2018-03-31T04:11:46.747Z,95.05
2018-03-31T04:14:13.766Z,94.73
2018-03-31T04:16:40.829Z,94.86
2018-03-31T04:19:07.843Z,94.99
2018-03-31T04:21:34.882Z,94.70
2018-03-31T04:24:01.898Z,94.52
2018-03-31T04:26:29.074Z,94.68
2018-03-31T04:28:56.137Z,95.14
2018-03-31T04:31:23.230Z,96.65
2018-03-31T04:33:50.249Z,98.25
2018-03-31T04:36:17.317Z,99.03
2018-03-31T04:38:44.326Z,99.79
2018-03-31T04:41:11.458Z,100.00
2018-03-31T04:43:38.468Z,100.00
2018-03-31T04:46:05.545Z,100.00
2018-03-31T04:48:32.627Z,100.00
2018-03-31T04:50:59.685Z,100.00
2018-03-31T04:53:26.754Z,100.00
2018-03-31T04:55:53.835Z,100.00
2018-03-31T04:58:20.835Z,99.91
2018-03-31T05:00:47.883Z,99.21
2018-03-31T05:03:14.966Z,98.35
2018-03-31T05:05:42.010Z,98.90
2018-03-31T05:08:09.038Z,99.48
2018-03-31T05:10:36.048Z,99.76
2018-03-31T05:13:03.117Z,99.64
2018-03-31T05:15:30.179Z,99.07
2018-03-31T05:17:57.267Z,98.58
2018-03-31T05:20:24.237Z,97.63
2018-03-31T05:22:51.454Z,97.24
2018-03-31T05:25:18.469Z,97.89
2018-03-31T05:27:45.519Z,98.83
2018-03-31T05:30:12.532Z,99.72
2018-03-31T05:32:39.704Z,100.00
2018-03-31T05:35:06.774Z,100.00
2018-03-31T05:37:33.843Z,100.00
2018-03-31T05:40:00.851Z,100.00
2018-03-31T05:42:27.906Z,100.00
2018-03-31T05:44:54.934Z,100.00
2018-03-31T05:47:22.010Z,100.00
2018-03-31T05:49:49.156Z,100.00
2018-03-31T05:52:16.201Z,100.00
2018-03-31T05:54:43.219Z,100.00
2018-03-31T05:57:10.278Z,100.00
2018-03-31T05:59:37.290Z,100.00
2018-03-31T06:02:04.471Z,100.00
2018-03-31T06:04:31.481Z,100.00
2018-03-31T06:06:58.514Z,99.51
2018-03-31T06:09:25.591Z,99.59
2018-03-31T06:11:52.621Z,100.00
2018-03-31T06:14:19.711Z,100.00
2018-03-31T06:16:46.720Z,100.00
2018-03-31T06:19:13.775Z,100.00
2018-03-31T06:21:40.905Z,100.00
2018-03-31T06:24:07.989Z,100.00
2018-03-31T06:26:35.007Z,100.00
2018-03-31T06:29:02.079Z,100.00
2018-03-31T06:31:29.124Z,100.00
2018-03-31T06:33:56.174Z,100.00
2018-03-31T06:36:23.191Z,100.00
2018-03-31T06:38:50.250Z,100.00
2018-03-31T06:41:17.258Z,100.00
2018-03-31T06:43:44.464Z,100.00
2018-03-31T06:46:11.830Z,99.46
2018-03-31T06:48:38.882Z,99.02
2018-03-31T06:51:05.886Z,98.69
2018-03-31T06:53:32.960Z,98.49
2018-03-31T06:55:59.978Z,98.26
2018-03-31T06:58:27.159Z,98.11
2018-03-31T07:00:54.211Z,98.03
2018-03-31T07:03:21.218Z,98.02
2018-03-31T07:05:48.270Z,98.34
2018-03-31T07:08:15.300Z,98.68
2018-03-31T07:10:42.350Z,98.61
2018-03-31T07:13:09.421Z,98.59
2018-03-31T07:15:36.473Z,98.60
2018-03-31T07:18:03.488Z,98.94
2018-03-31T07:20:30.599Z,98.82
2018-03-31T07:22:57.618Z,99.02
2018-03-31T07:25:24.674Z,98.97
2018-03-31T07:27:51.679Z,98.80
2018-03-31T07:30:18.739Z,97.64
2018-03-31T07:32:45.751Z,97.14
2018-03-31T07:35:12.802Z,97.08
2018-03-31T07:37:39.827Z,97.25
2018-03-31T07:40:06.887Z,96.05
2018-03-31T07:42:33.978Z,95.89
2018-03-31T07:45:01.062Z,95.85
2018-03-31T07:47:28.087Z,95.54
2018-03-31T07:49:55.107Z,95.82
2018-03-31T07:52:22.154Z,95.87
2018-03-31T07:54:49.243Z,96.33
2018-03-31T07:59:49.606Z,94.77
2018-03-31T08:02:16.683Z,94.09
2018-03-31T08:04:43.699Z,93.63
2018-03-31T08:07:10.828Z,92.94
2018-03-31T08:09:37.879Z,91.73
2018-03-31T08:12:05.015Z,90.82
2018-03-31T08:14:32.020Z,90.24
2018-03-31T08:16:59.086Z,90.87
2018-03-31T08:19:26.110Z,91.13
2018-03-31T08:21:53.150Z,89.24
2018-03-31T08:24:20.159Z,89.17
2018-03-31T08:26:47.213Z,88.47
2018-03-31T08:29:14.241Z,87.60
2018-03-31T08:31:41.339Z,87.22
2018-03-31T08:34:08.361Z,86.66
2018-03-31T08:36:35.420Z,87.00
2018-03-31T08:39:02.450Z,86.31
2018-03-31T08:41:29.625Z,86.32
2018-03-31T08:43:56.635Z,85.50
2018-03-31T08:46:23.659Z,86.47
2018-03-31T08:48:50.715Z,86.28
2018-03-31T08:51:17.730Z,84.13
2018-03-31T08:53:44.787Z,84.20
2018-03-31T08:56:11.798Z,83.44
2018-03-31T08:58:38.857Z,82.71
2018-03-31T09:01:05.869Z,83.04
2018-03-31T09:03:32.969Z,82.33
2018-03-31T09:05:59.977Z,82.70
2018-03-31T09:08:27.032Z,80.92
2018-03-31T09:10:54.046Z,80.55
2018-03-31T09:13:21.253Z,81.31
2018-03-31T09:15:48.299Z,80.06
2018-03-31T09:18:15.338Z,79.54
2018-03-31T09:20:42.371Z,79.00
2018-03-31T09:23:09.439Z,78.62
2018-03-31T09:25:36.510Z,78.45
2018-03-31T09:28:03.530Z,77.87
2018-03-31T09:30:30.540Z,77.04
2018-03-31T09:32:57.654Z,74.53
2018-03-31T09:35:24.615Z,74.32
2018-03-31T09:37:51.640Z,73.69
2018-03-31T09:40:18.707Z,71.50
2018-03-31T09:42:45.718Z,70.09
2018-03-31T09:45:12.857Z,70.03
2018-03-31T09:47:39.910Z,69.91
2018-03-31T09:50:07.019Z,68.02
2018-03-31T09:52:34.051Z,65.84
2018-03-31T09:55:01.119Z,64.89
2018-03-31T09:57:28.142Z,66.65
2018-03-31T09:59:55.341Z,64.52
2018-03-31T10:02:22.332Z,62.30
2018-03-31T10:04:49.394Z,63.90
2018-03-31T10:07:16.415Z,63.22
2018-03-31T10:09:43.589Z,63.18
2018-03-31T10:12:10.619Z,62.04
2018-03-31T10:14:37.681Z,61.54
2018-03-31T10:17:04.771Z,61.82
2018-03-31T10:19:31.878Z,61.13
2018-03-31T10:21:58.973Z,61.06
2018-03-31T10:24:26.080Z,60.34
2018-03-31T10:26:53.211Z,61.57
2018-03-31T10:29:20.290Z,61.33
2018-03-31T10:31:47.327Z,60.20
2018-03-31T10:34:14.352Z,58.97
2018-03-31T10:36:41.443Z,58.76
2018-03-31T10:39:08.482Z,58.26
2018-03-31T10:41:35.540Z,58.16
2018-03-31T10:44:02.587Z,57.45
2018-03-31T10:46:29.848Z,53.82
2018-03-31T10:48:56.927Z,53.30
2018-03-31T10:51:23.984Z,53.75
2018-03-31T10:53:50.994Z,53.32
2018-03-31T10:56:18.096Z,51.87
2018-03-31T10:58:45.138Z,51.99
2018-03-31T11:01:12.198Z,51.68
2018-03-31T11:03:39.319Z,52.08
2018-03-31T11:06:06.379Z,50.89
2018-03-31T11:08:33.419Z,51.27
2018-03-31T11:11:00.915Z,51.46
2018-03-31T11:13:27.966Z,49.37
2018-03-31T11:15:55.157Z,50.32
2018-03-31T11:18:22.179Z,47.94
2018-03-31T11:20:49.228Z,46.38
2018-03-31T11:23:16.265Z,47.23
2018-03-31T11:25:43.326Z,45.33
2018-03-31T11:28:10.343Z,46.78
2018-03-31T11:30:37.464Z,45.71
2018-03-31T11:33:04.580Z,45.81
2018-03-31T11:35:31.604Z,46.48
2018-03-31T11:37:58.678Z,45.32
2018-03-31T11:40:25.749Z,44.01
2018-03-31T11:42:52.807Z,43.49
2018-03-31T11:45:19.884Z,43.00
2018-03-31T11:47:46.972Z,45.10
2018-03-31T11:50:14.004Z,46.13
2018-03-31T11:52:41.203Z,46.84
2018-03-31T11:55:08.216Z,45.29
2018-03-31T11:57:35.432Z,44.17
2018-03-31T12:00:02.468Z,43.28
2018-03-31T12:02:29.552Z,42.99
2018-03-31T12:04:56.559Z,42.19
2018-03-31T12:07:23.651Z,42.82
2018-03-31T12:09:50.666Z,43.01
2018-03-31T12:12:17.780Z,44.20
2018-03-31T12:14:44.798Z,44.33
2018-03-31T12:17:11.884Z,45.14
2018-03-31T12:19:38.934Z,43.64
2018-03-31T12:22:06.069Z,44.19
2018-03-31T12:24:33.131Z,44.46
2018-03-31T12:27:00.163Z,45.35
2018-03-31T12:29:27.316Z,46.46
2018-03-31T12:31:54.334Z,47.23
2018-03-31T12:34:21.412Z,48.39
2018-03-31T12:36:48.455Z,48.18
2018-03-31T12:39:15.595Z,47.79
2018-03-31T12:41:42.654Z,47.64
2018-03-31T12:44:09.705Z,48.52
2018-03-31T12:46:36.720Z,48.42
2018-03-31T12:49:03.782Z,47.31
2018-03-31T12:51:30.826Z,47.33
2018-03-31T12:53:57.886Z,47.19
2018-03-31T12:56:24.938Z,46.92
2018-03-31T12:58:52.085Z,47.82
2018-03-31T13:01:19.134Z,47.98
2018-03-31T13:03:46.193Z,47.83
2018-03-31T13:06:13.227Z,48.23
2018-03-31T13:08:40.288Z,49.14
2018-03-31T13:11:07.305Z,47.76
2018-03-31T13:13:34.340Z,47.82
2018-03-31T13:16:01.367Z,48.31
2018-03-31T13:18:28.407Z,48.09
2018-03-31T13:20:55.447Z,48.06
2018-03-31T13:23:22.426Z,48.47
2018-03-31T13:25:49.503Z,45.52
2018-03-31T13:28:16.528Z,44.11
2018-03-31T13:30:43.598Z,43.08
2018-03-31T13:33:10.609Z,42.95
2018-03-31T13:35:37.766Z,41.12
2018-03-31T13:38:04.796Z,40.95
2018-03-31T13:40:31.859Z,40.11
2018-03-31T13:42:58.874Z,41.10
2018-03-31T13:45:25.977Z,41.09
2018-03-31T13:47:53.114Z,39.71
2018-03-31T13:50:20.193Z,41.63
2018-03-31T13:52:47.262Z,42.82
2018-03-31T13:55:14.326Z,42.61
2018-03-31T13:57:41.371Z,42.14
2018-03-31T14:00:08.438Z,41.92
2018-03-31T14:02:35.576Z,42.80
2018-03-31T14:05:02.677Z,43.70
2018-03-31T14:07:29.695Z,44.31
2018-03-31T14:09:56.781Z,44.82
2018-03-31T14:12:23.797Z,46.15
2018-03-31T14:14:51.013Z,45.86
2018-03-31T14:17:18.170Z,45.81
2018-03-31T14:19:45.339Z,44.77
2018-03-31T14:22:12.448Z,44.05
2018-03-31T14:24:39.472Z,43.56
2018-03-31T14:27:06.566Z,44.81
2018-03-31T14:29:33.603Z,40.46
2018-03-31T14:32:00.734Z,42.68
2018-03-31T14:34:27.745Z,40.43
2018-03-31T14:36:54.816Z,43.87
2018-03-31T14:39:21.856Z,42.08
2018-03-31T14:41:48.918Z,43.19
2018-03-31T14:44:15.952Z,45.65
2018-03-31T14:46:43.016Z,48.40
2018-03-31T14:49:10.054Z,43.24
2018-03-31T14:51:37.250Z,42.04
2018-03-31T14:54:04.311Z,41.43
2018-03-31T14:56:31.364Z,40.85
2018-03-31T14:58:58.422Z,41.25
2018-03-31T15:01:25.518Z,42.51
2018-03-31T15:03:52.533Z,42.79
2018-03-31T15:06:19.696Z,44.68
2018-03-31T15:08:46.746Z,43.65
2018-03-31T15:11:13.821Z,43.90
2018-03-31T15:13:40.909Z,44.39
2018-03-31T15:16:07.917Z,45.11
2018-03-31T15:18:34.960Z,45.10
2018-03-31T15:21:01.978Z,45.56
2018-03-31T15:23:29.090Z,45.63
2018-03-31T15:25:56.118Z,44.83
2018-03-31T15:28:23.173Z,43.38
2018-03-31T15:30:50.212Z,42.97
2018-03-31T15:33:17.299Z,42.43
2018-03-31T15:35:44.330Z,42.47
2018-03-31T15:38:11.579Z,42.61
2018-03-31T15:40:38.596Z,43.02
2018-03-31T15:43:05.653Z,41.81
2018-03-31T15:45:34.428Z,42.69
2018-03-31T15:48:01.632Z,42.26
2018-03-31T15:50:28.686Z,43.09
2018-03-31T15:52:55.759Z,43.60
2018-03-31T15:55:22.791Z,42.19
2018-03-31T15:57:49.851Z,41.80
2018-03-31T16:00:16.893Z,41.22
2018-03-31T16:02:43.939Z,40.19
2018-03-31T16:05:11.015Z,39.25
2018-03-31T16:07:38.041Z,39.32
2018-03-31T16:10:05.124Z,39.21
2018-03-31T16:12:32.151Z,40.55
2018-03-31T16:14:59.212Z,40.76
2018-03-31T16:17:26.232Z,41.90
2018-03-31T16:19:53.311Z,43.18
2018-03-31T16:22:20.329Z,44.75
2018-03-31T16:24:47.374Z,44.82
2018-03-31T16:27:14.381Z,45.66
2018-03-31T16:29:41.465Z,45.89
2018-03-31T16:32:08.486Z,46.28
2018-03-31T16:34:35.532Z,46.46
2018-03-31T16:37:02.547Z,46.86
2018-03-31T16:39:29.614Z,47.12
2018-03-31T16:41:56.635Z,47.71
2018-03-31T16:44:23.774Z,47.45
2018-03-31T16:46:50.839Z,46.99
2018-03-31T16:49:17.956Z,46.75
2018-03-31T16:51:44.937Z,45.23
2018-03-31T16:54:12.071Z,45.18
2018-03-31T16:56:39.131Z,45.71
2018-03-31T16:59:06.164Z,46.18
2018-03-31T17:01:33.249Z,46.49
2018-03-31T17:04:00.294Z,47.37
2018-03-31T17:06:27.540Z,48.15
2018-03-31T17:08:54.580Z,47.64
2018-03-31T17:11:21.648Z,48.00
2018-03-31T17:13:48.667Z,48.50
2018-03-31T17:16:15.766Z,48.67
2018-03-31T17:18:42.805Z,49.18
2018-03-31T17:21:09.896Z,49.36
2018-03-31T17:23:36.989Z,49.36
2018-03-31T17:26:04.059Z,49.66
2018-03-31T17:28:31.118Z,49.82
2018-03-31T17:30:58.180Z,50.43
2018-03-31T17:33:25.190Z,50.27
2018-03-31T17:35:52.351Z,50.54
2018-03-31T17:38:19.387Z,50.59
2018-03-31T17:40:46.459Z,51.08
2018-03-31T17:43:13.496Z,51.13
2018-03-31T17:45:40.539Z,51.62
2018-03-31T17:48:07.560Z,51.55
2018-03-31T17:53:01.255Z,51.44
2018-03-31T17:55:28.298Z,51.85
2018-03-31T17:57:55.347Z,51.64
2018-03-31T18:00:22.376Z,51.79
2018-03-31T18:02:49.458Z,51.41
2018-03-31T18:05:16.531Z,51.76
2018-03-31T18:07:43.599Z,52.00
2018-03-31T18:10:10.609Z,52.54
2018-03-31T18:12:37.746Z,53.84
2018-03-31T18:15:04.754Z,54.31
2018-03-31T18:17:31.813Z,54.61
2018-03-31T18:19:58.854Z,55.05
2018-03-31T18:22:26.945Z,55.55
2018-03-31T18:24:53.970Z,55.56
2018-03-31T18:27:21.045Z,54.46
2018-03-31T18:29:48.055Z,54.39
2018-03-31T18:32:15.131Z,53.52
2018-03-31T18:34:42.155Z,53.84
2018-03-31T18:37:09.216Z,54.84
2018-03-31T18:39:36.239Z,54.91
2018-03-31T18:42:03.310Z,54.89
2018-03-31T18:44:30.337Z,55.43
2018-03-31T18:46:57.402Z,55.30
2018-03-31T18:49:24.425Z,55.31
2018-03-31T18:51:51.457Z,55.48
2018-03-31T18:54:18.519Z,54.51
2018-03-31T18:56:45.540Z,54.18
2018-03-31T18:59:12.620Z,54.44
2018-03-31T19:01:39.652Z,55.38
2018-03-31T19:04:06.702Z,55.88
2018-03-31T19:06:33.763Z,55.39
2018-03-31T19:09:00.835Z,55.43
2018-03-31T19:11:27.871Z,55.62
2018-03-31T19:13:55.129Z,55.33
2018-03-31T19:16:27.734Z,55.94
2018-03-31T19:18:54.856Z,56.32
2018-03-31T19:21:21.874Z,57.73
2018-03-31T19:23:48.935Z,59.95
2018-03-31T19:26:15.979Z,63.69
2018-03-31T19:28:43.055Z,65.46
2018-03-31T19:31:10.074Z,67.40
2018-03-31T19:33:37.130Z,67.82
2018-03-31T19:36:09.701Z,68.09
2018-03-31T19:38:36.750Z,69.76
2018-03-31T19:41:03.797Z,70.78
2018-03-31T19:43:30.864Z,72.31
2018-03-31T19:45:57.888Z,73.03
2018-03-31T19:48:25.033Z,74.21
2018-03-31T19:50:52.041Z,76.02
2018-03-31T19:53:19.077Z,78.04
2018-03-31T19:55:46.134Z,78.85
2018-03-31T19:58:13.156Z,80.03
2018-03-31T20:00:40.211Z,78.81
2018-03-31T20:03:07.266Z,78.71
2018-03-31T20:05:34.329Z,79.40
2018-03-31T20:08:01.357Z,80.02
2018-03-31T20:10:28.404Z,80.91
2018-03-31T20:12:55.432Z,82.94
2018-03-31T20:15:22.502Z,84.11
2018-03-31T20:17:49.650Z,85.10
2018-03-31T20:20:16.699Z,85.17
2018-03-31T20:22:43.752Z,85.75
2018-03-31T20:25:10.852Z,86.60
2018-03-31T20:27:37.885Z,87.29
2018-03-31T20:30:04.970Z,87.86
2018-03-31T20:32:32.002Z,88.24
2018-03-31T20:34:59.066Z,89.01
2018-03-31T20:37:26.096Z,89.57
2018-03-31T20:39:53.243Z,89.78
2018-03-31T20:42:20.311Z,89.83
2018-03-31T20:44:47.337Z,89.92
2018-03-31T20:47:14.383Z,89.90
2018-03-31T20:49:41.425Z,89.66
2018-03-31T20:52:08.476Z,90.64
2018-03-31T20:54:35.535Z,90.79
2018-03-31T20:57:02.674Z,90.08
2018-03-31T20:59:29.683Z,88.78
2018-03-31T21:01:56.735Z,87.68
2018-03-31T21:04:23.787Z,87.38
2018-03-31T21:06:50.854Z,87.60
2018-03-31T21:09:17.871Z,87.54
2018-03-31T21:11:44.929Z,87.18
2018-03-31T21:14:11.966Z,87.40
2018-03-31T21:16:39.027Z,88.41
2018-03-31T21:19:06.092Z,89.42
2018-03-31T21:21:33.167Z,90.06
2018-03-31T21:24:00.184Z,90.57
2018-03-31T21:26:27.429Z,91.18
2018-03-31T21:28:54.506Z,91.80
2018-03-31T21:31:21.595Z,92.64
2018-03-31T21:33:48.594Z,94.25
2018-03-31T21:36:15.688Z,95.15
2018-03-31T21:38:42.771Z,94.98
2018-03-31T21:41:09.791Z,94.89
2018-03-31T21:43:36.865Z,94.44
2018-03-31T21:46:03.875Z,94.04
2018-03-31T21:48:30.919Z,93.79
2018-03-31T21:50:57.970Z,93.73
2018-03-31T21:53:25.050Z,93.85
2018-03-31T21:55:52.090Z,93.78
2018-03-31T21:58:19.138Z,94.07
2018-03-31T22:00:46.170Z,94.23
2018-03-31T22:03:13.214Z,94.73
2018-03-31T22:05:40.240Z,94.85
2018-03-31T22:08:07.299Z,94.71
2018-03-31T22:10:34.311Z,94.17
2018-03-31T22:13:06.908Z,93.47
2018-03-31T22:15:39.573Z,93.82
2018-03-31T22:18:06.728Z,93.48
2018-03-31T22:20:33.777Z,93.46
2018-03-31T22:23:00.828Z,92.52
2018-03-31T22:25:27.875Z,92.41
2018-03-31T22:27:54.943Z,92.49
2018-03-31T22:30:22.162Z,92.82
2018-03-31T22:32:49.187Z,93.37
2018-03-31T22:35:16.247Z,93.42
2018-03-31T22:37:43.270Z,93.00
2018-03-31T22:40:10.332Z,92.93
2018-03-31T22:42:37.362Z,92.96
2018-03-31T22:45:04.424Z,92.86
2018-03-31T22:47:31.426Z,92.15
2018-03-31T22:49:58.491Z,91.16
2018-03-31T22:52:25.502Z,91.63
2018-03-31T22:54:52.542Z,91.97
2018-03-31T22:57:19.565Z,91.91
2018-03-31T22:59:46.619Z,92.28
2018-03-31T23:02:13.642Z,92.51
2018-03-31T23:04:40.776Z,92.90
2018-03-31T23:07:07.796Z,92.57
2018-03-31T23:09:34.858Z,92.40
2018-03-31T23:12:01.923Z,92.76
2018-03-31T23:14:28.966Z,92.37
2018-03-31T23:16:55.986Z,92.78
2018-03-31T23:19:23.068Z,92.71
2018-03-31T23:21:50.200Z,92.54
2018-03-31T23:24:17.378Z,92.11
2018-03-31T23:26:44.497Z,92.33
2018-03-31T23:29:11.530Z,92.48
2018-03-31T23:31:38.572Z,92.93
2018-03-31T23:34:05.599Z,93.58
2018-03-31T23:36:32.646Z,94.34
2018-03-31T23:38:59.671Z,95.44
2018-03-31T23:41:26.737Z,96.83
2018-03-31T23:43:53.747Z,97.49
2018-03-31T23:46:20.815Z,97.86
2018-03-31T23:48:47.814Z,97.60
2018-03-31T23:51:14.874Z,97.89
2018-03-31T23:53:41.897Z,97.74
2018-03-31T23:56:08.979Z,97.47
2018-03-31T23:58:35.994Z,96.97
